Latest Weather Observations for Cloncurry

IDQ60801

Issued at 7:02 pm EST Sunday 29 March 2020 (issued every 10 minutes, with the page automatically refreshed every 10 minutes)

About weather observations | Map of weather stations | Latest weather observations for QLD | Other Formats
Station Details ID: 029141 Name: CLONCURRY AIRPORT Lat: -20.67 Lon: 140.50 Height: 186.0 m
Data from the previous 72 hours. | See also: Recent months at Cloncurry
Date/Time
EST
Temp
°C
App
Temp
°C
Dew
Point
°C
Rel
Hum
%
Delta-T
°C
Wind Press
QNH
hPa
Press
MSL
hPa
Rain since
9am
mm
Dir  Spd
km/h
Gust
km/h
Spd
kts
Gust
kts
29/07:00pm 33.0 31.8 10.4 25 13.1 SE 7 9 4 5 1010.2 1008.9 0.0
29/06:30pm 34.4 32.3 9.6 22 14.3 SE 11 15 6 8 1009.8 1008.5 0.0
29/06:00pm 35.1 33.5 10.2 22 14.6 ESE 9 17 5 9 1009.5 1008.2 0.0
29/05:30pm 35.2 31.4 8.9 20 15.1 ESE 19 28 10 15 1009.4 1008.1 0.0
29/05:00pm 36.1 31.7 10.3 21 15.2 ESE 24 35 13 19 1009.3 1008.0 0.0
29/04:30pm 36.1 32.8 11.0 22 14.9 ESE 19 33 10 18 1009.2 1007.9 0.0
29/04:00pm 35.5 33.6 11.8 24 14.2 SE 13 20 7 11 1009.1 1007.8 0.0
29/03:30pm 35.9 33.1 11.5 23 14.6 ESE 17 52 9 28 1009.2 1007.9 0.0
29/03:00pm 36.0 33.7 11.6 23 14.6 ESE 15 22 8 12 1009.6 1008.3 0.0
29/02:30pm 35.4 33.5 11.7 23 14.2 S 13 22 7 12 1010.0 1008.7 0.0
29/02:00pm 34.9 33.8 13.1 27 13.3 S 11 20 6 11 1010.4 1009.1 0.0
29/01:30pm 34.7 34.6 14.0 28 12.8 E 7 11 4 6 1011.0 1009.7 0.0
29/01:00pm 33.8 32.0 13.3 29 12.5 E 15 20 8 11 1011.6 1010.3 0.0
29/12:30pm 33.5 33.2 14.5 31 11.8 E 9 17 5 9 1012.0 1010.7 0.0
29/12:00pm 33.3 32.4 14.8 32 11.5 ENE 13 24 7 13 1012.5 1011.2 0.0
29/11:30am 32.5 31.6 15.9 36 10.5 ENE 15 20 8 11 1012.7 1011.4 0.0
29/11:00am 31.8 31.1 15.3 37 10.3 NNE 13 22 7 12 1013.1 1011.8 0.0
29/10:30am 31.3 30.7 15.7 39 9.8 NNE 13 19 7 10 1013.4 1012.1 0.0
29/10:00am 30.1 29.6 15.8 42 8.9 NNE 13 19 7 10 1013.7 1012.3 0.0
29/09:30am 29.4 28.1 15.9 44 8.4 NNE 17 24 9 13 1013.7 1012.3 0.0
29/09:00am 28.6 27.9 15.5 45 8.1 NNE 13 20 7 11 1013.4 1012.1 0.0
29/08:30am 27.9 27.9 15.2 46 7.8 NE 9 15 5 8 1013.2 1011.9 0.0
29/08:00am 26.8 26.9 14.5 46 7.4 ESE 7 11 4 6 1012.9 1011.6 0.0
29/07:30am 25.9 25.5 14.1 48 7.1 E 9 13 5 7 1012.5 1011.2 0.0
29/07:00am 24.5 24.7 14.6 54 5.9 E 7 9 4 5 1012.1 1010.8 0.0
29/06:30am 23.3 24.3 13.2 53 5.9 CALM 0 0 0 0 1011.7 1010.4 0.0
29/06:00am 24.9 24.3 13.5 49 6.7 E 9 11 5 6 1011.2 1009.9 0.0
29/05:30am 25.1 24.3 13.0 47 7.1 E 9 13 5 7 1010.9 1009.6 0.0
29/05:00am 25.6 23.1 12.4 43 7.7 E 17 19 9 10 1010.6 1009.3 0.0
29/04:30am 26.0 24.2 12.1 42 8.0 E 13 17 7 9 1010.3 1009.0 0.0
29/04:00am 26.6 23.6 11.9 40 8.5 E 19 20 10 11 1010.1 1008.8 0.0
29/03:30am 27.1 24.0 11.6 38 8.9 E 19 24 10 13 1010.1 1008.8 0.0
29/03:00am 27.5 24.4 11.5 37 9.2 ESE 19 22 10 12 1010.0 1008.7 0.0
29/02:30am 27.9 24.9 11.9 37 9.3 ESE 19 20 10 11 1010.2 1008.9 0.0
29/02:00am 28.4 26.3 12.3 37 9.5 SE 15 19 8 10 1010.4 1009.1 0.0
29/01:30am 26.2 25.9 13.3 45 7.6 SE 7 9 4 5 1010.6 1009.3 0.0
29/01:00am 27.9 27.2 11.9 37 9.3 SE 7 9 4 5 1010.7 1009.4 0.0
29/12:30am 29.0 27.5 12.0 35 10.0 SE 11 13 6 7 1010.9 1009.6 0.0
29/12:00am 29.2 27.5 12.6 36 9.8 SE 13 17 7 9 1011.1 1009.8 0.0
 
Date/Time
EST
Temp
°C
App
Temp
°C
Dew
Point
°C
Rel
Hum
%
Delta-T
°C
Wind Press
QNH
hPa
Press
MSL
hPa
Rain since
9am
mm
Dir  Spd
km/h
Gust
km/h
Spd
kts
Gust
kts
28/11:30pm 28.4 27.3 11.9 36 9.6 SE 9 13 5 7 1011.2 1009.9 0.0
28/11:00pm 28.3 26.9 12.2 37 9.4 SE 11 13 6 7 1011.3 1010.0 0.0
28/10:30pm 29.3 27.4 11.8 34 10.2 SE 13 17 7 9 1011.4 1010.1 0.0
28/10:00pm 28.1 28.5 12.5 38 9.2 SE 2 9 1 5 1011.3 1010.0 0.0
28/09:30pm 29.5 28.6 11.5 33 10.5 SE 7 9 4 5 1011.1 1009.8 0.0
28/09:00pm 30.7 29.1 11.6 31 11.2 SE 11 11 6 6 1010.8 1009.5 0.0
28/08:30pm 31.7 29.7 11.5 29 11.9 SE 13 15 7 8 1010.5 1009.2 0.0
28/08:00pm 31.7 30.2 12.0 30 11.7 ESE 11 15 6 8 1010.0 1008.7 0.0
28/07:30pm 31.8 30.7 12.1 30 11.7 ESE 9 11 5 6 1009.8 1008.5 0.0
28/07:00pm 32.7 31.4 11.3 27 12.6 ESE 9 11 5 6 1009.7 1008.4 0.0
28/06:30pm 34.0 32.1 10.6 24 13.7 ESE 11 13 6 7 1009.3 1008.0 0.0
28/06:00pm 34.9 31.7 10.0 22 14.5 ESE 17 24 9 13 1009.2 1007.9 0.0
28/05:30pm 35.3 33.0 11.7 24 14.1 E 15 20 8 11 1009.1 1007.8 0.0
28/05:00pm 35.2 33.4 10.9 23 14.4 ESE 11 17 6 9 1009.1 1007.8 0.0
28/04:30pm 35.0 31.6 11.4 24 14.0 ESE 20 26 11 14 1009.1 1007.8 0.0
28/04:00pm 35.5 32.1 10.5 22 14.7 E 19 28 10 15 1009.2 1007.9 0.0
28/03:30pm 36.0 34.6 10.9 22 14.9 ENE 9 13 5 7 1009.4 1008.1 0.0
28/03:00pm 35.4 33.3 12.4 25 13.9 E 15 24 8 13 1009.9 1008.6 0.0
28/02:30pm 35.2 32.8 12.8 26 13.6 E 17 24 9 13 1010.3 1009.0 0.0
28/02:00pm 34.8 32.7 13.6 28 13.0 E 17 28 9 15 1010.7 1009.4 0.0
28/01:30pm 34.3 33.0 14.7 30 12.2 E 15 28 8 15 1011.1 1009.8 0.0
28/01:00pm 33.8 32.1 14.8 32 11.8 ENE 17 30 9 16 1011.7 1010.4 0.0
28/12:30pm 33.8 32.8 15.7 33 11.4 E 15 28 8 15 1012.3 1011.0 0.0
28/12:00pm 33.3 33.6 17.1 38 10.4 NE 11 19 6 10 1012.7 1011.4 0.0
28/11:30am 32.2 31.3 16.9 40 9.8 NNE 17 26 9 14 1013.3 1012.0 0.0
28/11:00am 31.9 31.2 17.4 42 9.3 ENE 17 26 9 14 1013.7 1012.3 0.0
28/10:30am 31.5 29.7 15.9 39 9.8 NE 20 30 11 16 1014.1 1012.8 0.0
28/10:00am 30.7 28.9 15.5 39 9.5 NE 19 28 10 15 1014.0 1012.7 0.0
28/09:30am 29.9 28.0 15.2 41 9.1 ENE 19 26 10 14 1014.0 1012.7 0.0
28/09:00am 29.7 27.3 14.3 39 9.4 E 20 26 11 14 1013.8 1012.4 0.0
28/08:30am 29.0 26.8 12.0 35 10.0 ESE 15 19 8 10 1013.2 1011.9 0.0
28/08:00am 26.8 24.9 10.5 36 9.2 S 11 13 6 7 1012.9 1011.6 0.0
28/07:30am 25.2 22.4 9.9 38 8.5 S 15 17 8 9 1012.6 1011.3 0.0
28/07:00am 23.6 21.6 10.3 43 7.4 S 11 13 6 7 1012.3 1011.0 0.0
28/06:30am 23.9 21.8 9.9 41 7.7 SSW 11 15 6 8 1012.0 1010.7 0.0
28/06:00am 24.6 22.1 9.7 39 8.2 SSW 13 15 7 8 1011.6 1010.3 0.0
28/05:30am 25.0 22.4 9.3 37 8.6 SSW 13 17 7 9 1011.3 1010.0 0.0
28/05:21am 25.1 22.5 9.4 37 8.6 SSW 13 17 7 9 1011.2 1009.9 0.0
28/05:00am 25.5 22.5 9.3 36 8.9 SSW 15 20 8 11 1011.1 1009.8 0.0
28/04:41am 26.0 22.5 8.9 34 9.4 SSW 17 20 9 11 1011.0 1009.7 0.0
28/04:30am 26.1 22.8 9.5 35 9.2 SSW 17 20 9 11 1011.0 1009.7 0.0
28/04:00am 26.7 23.3 9.1 33 9.7 SSW 17 22 9 12 1011.0 1009.7 0.0
28/03:30am 27.0 23.5 8.9 32 10.0 SSW 17 20 9 11 1011.1 1009.8 0.0
28/03:00am 27.4 23.5 8.8 31 10.3 SSW 19 24 10 13 1011.2 1009.9 0.0
28/02:30am 28.0 24.1 8.8 30 10.6 SSW 19 24 10 13 1011.4 1010.1 0.0
28/02:00am 28.2 24.8 9.0 30 10.7 SSW 17 22 9 12 1011.6 1010.3 0.0
28/01:30am 28.2 24.5 9.5 31 10.5 SSW 19 26 10 14 1011.7 1010.4 0.0
28/01:00am 28.3 25.1 10.0 32 10.3 SSW 17 20 9 11 1012.0 1010.7 0.0
28/12:30am 27.8 25.1 10.5 34 9.8 SSW 15 19 8 10 1012.2 1010.9 0.0
28/12:00am 28.3 26.0 10.5 33 10.1 S 13 17 7 9 1012.3 1011.0 0.0
 
Date/Time
EST
Temp
°C
App
Temp
°C
Dew
Point
°C
Rel
Hum
%
Delta-T
°C
Wind Press
QNH
hPa
Press
MSL
hPa
Rain since
9am
mm
Dir  Spd
km/h
Gust
km/h
Spd
kts
Gust
kts
27/11:30pm 29.1 25.7 10.7 32 10.6 SSW 19 24 10 13 1012.3 1011.0 0.0
27/11:00pm 27.0 25.8 14.1 45 7.8 S 13 15 7 8 1012.5 1011.2 0.0
27/10:53pm 27.0 27.7 14.4 46 7.6 SE 4 13 2 7 1012.5 1011.2 0.0
27/10:37pm 27.2 28.4 13.9 44 8.0 CALM 0 0 0 0 1012.5 1011.2 0.0
27/10:30pm 27.2 28.5 14.2 44 7.8 CALM 0 0 0 0 1012.5 1011.2 0.0
27/10:00pm 26.8 28.5 15.2 49 7.1 CALM 0 0 0 0 1012.5 1011.2 0.0
27/09:30pm 26.6 27.8 13.7 45 7.7 CALM 0 0 0 0 1012.4 1011.1 0.0
27/09:00pm 27.7 28.4 12.1 38 9.1 CALM 0 0 0 0 1012.2 1010.9 0.0
27/08:30pm 29.6 30.0 11.2 32 10.7 CALM 0 0 0 0 1012.0 1010.7 0.0
27/08:00pm 29.9 30.1 10.5 30 11.1 CALM 0 0 0 0 1011.7 1010.4 0.0
27/07:30pm 30.8 29.9 11.2 30 11.4 SE 7 7 4 4 1011.3 1010.0 0.0
27/07:00pm 32.6 31.5 10.6 26 12.8 SE 7 9 4 5 1010.9 1009.6 0.0
27/06:30pm 34.2 34.1 9.4 22 14.3 CALM 0 0 0 0 1010.7 1009.4 0.0
27/06:00pm 34.7 33.4 9.9 22 14.4 E 7 11 4 6 1010.6 1009.3 0.0
27/05:30pm 35.1 33.5 10.2 22 14.6 SSE 9 15 5 8 1010.4 1009.1 0.0
27/05:00pm 35.3 32.8 9.7 21 14.9 S 13 19 7 10 1010.5 1009.2 0.0
27/04:30pm 35.0 33.7 10.1 22 14.5 ESE 7 11 4 6 1010.6 1009.3 0.0
27/04:00pm 35.6 32.8 9.9 21 15.0 SE 15 24 8 13 1010.8 1009.5 0.0
27/03:30pm 35.5 34.0 10.5 22 14.7 ESE 9 19 5 10 1011.0 1009.7 0.0
27/03:00pm 34.4 33.2 10.3 23 14.1 ENE 7 17 4 9 1011.2 1009.9 0.0
27/02:30pm 35.5 34.2 11.2 23 14.4 NNE 9 46 5 25 1011.3 1010.0 0.0
27/02:00pm 34.5 31.6 11.0 24 13.9 ENE 17 24 9 13 1011.9 1010.6 0.0
27/01:30pm 34.3 32.7 11.4 25 13.6 ENE 11 19 6 10 1012.4 1011.1 0.0
27/01:00pm 34.1 31.8 11.9 26 13.3 ESE 15 32 8 17 1013.1 1011.8 0.0
27/12:30pm 33.9 32.2 11.1 25 13.4 ESE 11 20 6 11 1013.6 1012.2 0.0
27/12:00pm 33.2 31.1 11.1 26 13.0 ENE 13 20 7 11 1014.3 1013.0 0.0
27/11:30am 33.3 30.5 11.2 26 13.0 ESE 17 20 9 11 1014.8 1013.5 0.0
27/11:00am 32.7 31.2 10.7 26 12.8 ESE 9 19 5 10 1015.1 1013.8 0.0
27/10:30am 31.8 30.4 11.0 28 12.1 E 9 17 5 9 1015.2 1013.9 0.0
27/10:00am 31.7 30.3 11.0 28 12.1 ESE 9 17 5 9 1015.4 1014.1 0.0
27/09:30am 31.0 28.5 10.9 29 11.7 ESE 15 19 8 10 1015.4 1014.1 0.0
27/09:00am 30.3 27.4 9.8 28 11.7 SE 15 22 8 12 1015.2 1013.9 0.0
27/08:30am 28.3 25.8 9.6 31 10.5 S 13 15 7 8 1015.0 1013.7 0.0
27/08:00am 26.8 24.8 10.1 35 9.4 S 11 15 6 8 1015.0 1013.7 0.0
27/07:30am 25.0 23.7 11.2 42 7.8 S 9 11 5 6 1014.7 1013.4 0.0
27/07:00am 23.8 22.7 11.8 47 6.8 S 9 9 5 5 1014.3 1013.0 0.0
27/06:30am 24.2 23.0 11.5 45 7.2 S 9 11 5 6 1014.1 1012.8 0.0
27/06:00am 25.2 24.0 10.3 39 8.3 S 7 9 4 5 1013.8 1012.4 0.0
27/05:30am 25.6 24.2 9.4 36 8.9 S 7 9 4 5 1013.7 1012.3 0.0
27/05:00am 26.5 24.2 8.9 33 9.7 S 11 15 6 8 1013.2 1011.9 0.0
27/04:30am 26.7 24.1 9.5 34 9.6 S 13 19 7 10 1013.0 1011.7 0.0
27/04:00am 28.6 25.6 9.3 30 10.8 SSE 15 20 8 11 1012.9 1011.6 0.0
27/03:30am 28.0 26.9 13.1 39 8.8 S 11 13 6 7 1012.9 1011.6 0.0
27/03:00am 27.5 27.1 14.2 44 8.0 S 9 11 5 6 1013.0 1011.7 0.0
27/02:30am 27.2 26.7 13.9 44 8.0 S 9 11 5 6 1013.1 1011.8 0.0
27/02:00am 28.1 27.0 13.2 39 8.9 S 11 11 6 6 1013.3 1012.0 0.0
27/01:30am 28.7 28.1 13.4 39 9.2 S 9 11 5 6 1013.3 1012.0 0.0
27/01:00am 28.6 27.2 13.3 39 9.1 S 13 15 7 8 1013.4 1012.1 0.0
27/12:30am 29.7 28.2 13.0 35 10.0 S 13 15 7 8 1013.6 1012.2 0.0
27/12:00am 29.4 27.9 13.2 37 9.7 SSE 13 15 7 8 1013.7 1012.3 0.0
 
Date/Time
EST
Temp
°C
App
Temp
°C
Dew
Point
°C
Rel
Hum
%
Delta-T
°C
Wind Press
QNH
hPa
Press
MSL
hPa
Rain since
9am
mm
Dir  Spd
km/h
Gust
km/h
Spd
kts
Gust
kts
26/11:30pm 29.8 28.2 12.7 35 10.2 SSE 13 15 7 8 1013.4 1012.1 0.0
26/11:00pm 30.5 29.2 12.4 33 10.7 SE 11 13 6 7 1013.7 1012.3 0.0
26/10:30pm 31.5 29.4 12.3 31 11.4 SE 15 20 8 11 1013.7 1012.3 0.0
26/10:00pm 31.8 30.1 12.6 31 11.5 SE 13 15 7 8 1013.8 1012.4 0.0
26/09:30pm 31.6 29.9 12.4 31 11.4 SE 13 17 7 9 1013.7 1012.3 0.0
26/09:00pm 32.2 29.7 12.4 30 11.8 SE 17 20 9 11 1013.6 1012.2 0.0
26/08:30pm 31.6 30.6 13.4 33 11.0 SE 11 15 6 8 1013.1 1011.8 0.0
26/08:00pm 31.4 30.9 12.7 32 11.2 ESE 7 7 4 4 1012.8 1011.5 0.0
26/07:30pm 32.2 31.4 12.9 31 11.6 ESE 9 11 5 6 1012.5 1011.2 0.0

Other formats

Comma delimited format used in spreadsheet applications
http://www.bom.gov.au/fwo/IDQ60801/IDQ60801.94335.axf

JavaScript Object Notation format (JSON) in row-major order
http://www.bom.gov.au/fwo/IDQ60801/IDQ60801.94335.json

Data quality

Most of these data are generated automatically and are frequently updated. Quality checks on data are not normally performed. It is possible for incorrect values to appear. Refer to information at About Latest Weather Observations and please check the disclaimer before using these data.